sensor_id;sensor_type;location;lat;lon;timestamp;temperature;humidity
9881;DHT22;4979;51.014;6.678;2022-10-22T00:02:04;14.00;99.90
9881;DHT22;4979;51.014;6.678;2022-10-22T00:04:32;14.00;99.90
9881;DHT22;4979;51.014;6.678;2022-10-22T00:06:57;14.10;99.90
9881;DHT22;4979;51.014;6.678;2022-10-22T00:09:23;14.10;99.90
9881;DHT22;4979;51.014;6.678;2022-10-22T00:11:48;14.10;99.90
9881;DHT22;4979;51.014;6.678;2022-10-22T00:14:14;14.20;99.90
9881;DHT22;4979;51.014;6.678;2022-10-22T00:16:40;14.10;99.90
9881;DHT22;4979;51.014;6.678;2022-10-22T00:19:06;14.10;99.90
9881;DHT22;4979;51.014;6.678;2022-10-22T00:21:34;14.20;99.90
9881;DHT22;4979;51.014;6.678;2022-10-22T00:23:59;14.10;99.90
9881;DHT22;4979;51.014;6.678;2022-10-22T00:26:25;14.10;99.90
9881;DHT22;4979;51.014;6.678;2022-10-22T00:28:50;14.20;99.90
9881;DHT22;4979;51.014;6.678;2022-10-22T00:31:17;14.20;99.90
9881;DHT22;4979;51.014;6.678;2022-10-22T00:33:45;14.10;99.90
9881;DHT22;4979;51.014;6.678;2022-10-22T00:36:11;14.20;99.90
9881;DHT22;4979;51.014;6.678;2022-10-22T00:38:37;14.10;99.90
9881;DHT22;4979;51.014;6.678;2022-10-22T00:41:03;14.20;99.90
9881;DHT22;4979;51.014;6.678;2022-10-22T00:43:28;14.20;99.90
9881;DHT22;4979;51.014;6.678;2022-10-22T00:45:54;14.10;99.90
9881;DHT22;4979;51.014;6.678;2022-10-22T00:48:30;14.20;99.90
9881;DHT22;4979;51.014;6.678;2022-10-22T00:51:03;14.10;99.90
9881;DHT22;4979;51.014;6.678;2022-10-22T00:53:40;14.20;99.90
9881;DHT22;4979;51.014;6.678;2022-10-22T00:56:08;14.30;99.90
9881;DHT22;4979;51.014;6.678;2022-10-22T00:58:36;14.30;99.90
9881;DHT22;4979;51.014;6.678;2022-10-22T01:01:04;14.20;99.90
9881;DHT22;4979;51.014;6.678;2022-10-22T01:03:31;14.30;99.90
9881;DHT22;4979;51.014;6.678;2022-10-22T01:05:59;14.20;99.90
9881;DHT22;4979;51.014;6.678;2022-10-22T01:08:35;14.20;99.90
9881;DHT22;4979;51.014;6.678;2022-10-22T01:11:16;14.20;99.90
9881;DHT22;4979;51.014;6.678;2022-10-22T01:25:08;14.20;99.90
9881;DHT22;4979;51.014;6.678;2022-10-22T01:28:17;14.20;99.90
9881;DHT22;4979;51.014;6.678;2022-10-22T01:30:47;14.10;99.90
9881;DHT22;4979;51.014;6.678;2022-10-22T01:33:18;14.20;99.90
9881;DHT22;4979;51.014;6.678;2022-10-22T01:35:46;14.10;99.90
9881;DHT22;4979;51.014;6.678;2022-10-22T01:38:15;14.20;99.90
9881;DHT22;4979;51.014;6.678;2022-10-22T01:40:42;14.20;99.90
9881;DHT22;4979;51.014;6.678;2022-10-22T01:43:09;14.20;99.90
9881;DHT22;4979;51.014;6.678;2022-10-22T01:45:37;14.30;99.90
9881;DHT22;4979;51.014;6.678;2022-10-22T01:56:33;14.30;99.90
9881;DHT22;4979;51.014;6.678;2022-10-22T01:59:38;14.30;99.90
9881;DHT22;4979;51.014;6.678;2022-10-22T02:02:35;14.10;99.90
9881;DHT22;4979;51.014;6.678;2022-10-22T02:05:11;14.10;99.90
9881;DHT22;4979;51.014;6.678;2022-10-22T02:07:46;14.00;99.90
9881;DHT22;4979;51.014;6.678;2022-10-22T02:10:14;14.00;99.90
9881;DHT22;4979;51.014;6.678;2022-10-22T02:12:42;14.10;99.90
9881;DHT22;4979;51.014;6.678;2022-10-22T02:15:09;14.00;99.90
9881;DHT22;4979;51.014;6.678;2022-10-22T02:17:37;14.10;99.90
9881;DHT22;4979;51.014;6.678;2022-10-22T02:20:15;14.10;99.90
9881;DHT22;4979;51.014;6.678;2022-10-22T02:22:42;14.00;99.90
9881;DHT22;4979;51.014;6.678;2022-10-22T02:25:08;13.90;99.90
9881;DHT22;4979;51.014;6.678;2022-10-22T02:27:48;14.00;99.90
9881;DHT22;4979;51.014;6.678;2022-10-22T02:30:20;14.00;99.90
9881;DHT22;4979;51.014;6.678;2022-10-22T02:33:01;13.90;99.90
9881;DHT22;4979;51.014;6.678;2022-10-22T02:35:29;13.90;99.90
9881;DHT22;4979;51.014;6.678;2022-10-22T02:37:56;13.80;99.90
9881;DHT22;4979;51.014;6.678;2022-10-22T02:40:23;13.80;99.90
9881;DHT22;4979;51.014;6.678;2022-10-22T02:42:50;13.80;99.90
9881;DHT22;4979;51.014;6.678;2022-10-22T02:45:16;13.80;99.90
9881;DHT22;4979;51.014;6.678;2022-10-22T02:47:43;13.80;99.90
9881;DHT22;4979;51.014;6.678;2022-10-22T02:50:09;13.70;99.90
9881;DHT22;4979;51.014;6.678;2022-10-22T02:52:34;13.80;99.90
9881;DHT22;4979;51.014;6.678;2022-10-22T02:55:00;13.70;99.90
9881;DHT22;4979;51.014;6.678;2022-10-22T02:57:26;13.80;99.90
9881;DHT22;4979;51.014;6.678;2022-10-22T02:59:51;13.60;99.90
9881;DHT22;4979;51.014;6.678;2022-10-22T03:02:17;13.70;99.90
9881;DHT22;4979;51.014;6.678;2022-10-22T03:04:43;13.60;99.90
9881;DHT22;4979;51.014;6.678;2022-10-22T03:07:09;13.60;99.90
9881;DHT22;4979;51.014;6.678;2022-10-22T03:09:34;13.60;99.90
9881;DHT22;4979;51.014;6.678;2022-10-22T03:12:00;13.70;99.90
9881;DHT22;4979;51.014;6.678;2022-10-22T03:14:25;13.60;99.90
9881;DHT22;4979;51.014;6.678;2022-10-22T03:16:51;13.80;99.90
9881;DHT22;4979;51.014;6.678;2022-10-22T03:19:17;13.80;99.90
9881;DHT22;4979;51.014;6.678;2022-10-22T03:21:53;13.90;99.90
9881;DHT22;4979;51.014;6.678;2022-10-22T03:24:26;13.90;99.90
9881;DHT22;4979;51.014;6.678;2022-10-22T03:26:53;13.90;99.90
9881;DHT22;4979;51.014;6.678;2022-10-22T03:29:21;13.90;99.90
9881;DHT22;4979;51.014;6.678;2022-10-22T03:31:46;13.90;99.90
9881;DHT22;4979;51.014;6.678;2022-10-22T03:34:12;13.90;99.90
9881;DHT22;4979;51.014;6.678;2022-10-22T03:36:39;13.80;99.90
9881;DHT22;4979;51.014;6.678;2022-10-22T03:39:05;13.90;99.90
9881;DHT22;4979;51.014;6.678;2022-10-22T03:41:32;13.70;99.90
9881;DHT22;4979;51.014;6.678;2022-10-22T03:43:59;13.80;99.90
9881;DHT22;4979;51.014;6.678;2022-10-22T03:46:25;13.80;99.90
9881;DHT22;4979;51.014;6.678;2022-10-22T03:48:51;13.80;99.90
9881;DHT22;4979;51.014;6.678;2022-10-22T03:51:16;13.90;99.90
9881;DHT22;4979;51.014;6.678;2022-10-22T03:53:42;13.80;99.90
9881;DHT22;4979;51.014;6.678;2022-10-22T03:56:09;13.80;99.90
9881;DHT22;4979;51.014;6.678;2022-10-22T03:58:36;14.00;99.90
9881;DHT22;4979;51.014;6.678;2022-10-22T04:01:09;13.90;99.90
9881;DHT22;4979;51.014;6.678;2022-10-22T04:03:35;13.80;99.90
9881;DHT22;4979;51.014;6.678;2022-10-22T04:06:09;13.80;99.90
9881;DHT22;4979;51.014;6.678;2022-10-22T04:08:35;13.90;99.90
9881;DHT22;4979;51.014;6.678;2022-10-22T04:11:01;14.00;99.90
9881;DHT22;4979;51.014;6.678;2022-10-22T04:13:27;13.90;99.90
9881;DHT22;4979;51.014;6.678;2022-10-22T04:15:52;13.80;99.90
9881;DHT22;4979;51.014;6.678;2022-10-22T04:18:18;13.80;99.90
9881;DHT22;4979;51.014;6.678;2022-10-22T04:20:45;13.80;99.90
9881;DHT22;4979;51.014;6.678;2022-10-22T04:23:11;13.80;99.90
9881;DHT22;4979;51.014;6.678;2022-10-22T04:25:36;13.60;99.90
9881;DHT22;4979;51.014;6.678;2022-10-22T04:28:05;13.60;99.90
9881;DHT22;4979;51.014;6.678;2022-10-22T04:30:31;17.40;99.90
9881;DHT22;4979;51.014;6.678;2022-10-22T04:32:57;13.50;99.90
9881;DHT22;4979;51.014;6.678;2022-10-22T04:35:22;13.40;99.90
9881;DHT22;4979;51.014;6.678;2022-10-22T04:37:48;13.40;99.90
9881;DHT22;4979;51.014;6.678;2022-10-22T04:40:13;13.50;99.90
9881;DHT22;4979;51.014;6.678;2022-10-22T04:42:39;13.30;99.90
9881;DHT22;4979;51.014;6.678;2022-10-22T04:45:04;13.40;99.90
9881;DHT22;4979;51.014;6.678;2022-10-22T04:47:30;13.30;99.90
9881;DHT22;4979;51.014;6.678;2022-10-22T04:49:56;13.30;99.90
9881;DHT22;4979;51.014;6.678;2022-10-22T04:52:21;13.30;99.90
9881;DHT22;4979;51.014;6.678;2022-10-22T04:54:47;13.30;99.90
9881;DHT22;4979;51.014;6.678;2022-10-22T04:57:12;13.30;99.90
9881;DHT22;4979;51.014;6.678;2022-10-22T04:59:39;13.40;99.90
9881;DHT22;4979;51.014;6.678;2022-10-22T05:02:06;13.40;99.90
9881;DHT22;4979;51.014;6.678;2022-10-22T05:04:32;13.50;99.90
9881;DHT22;4979;51.014;6.678;2022-10-22T05:06:57;13.30;99.90
9881;DHT22;4979;51.014;6.678;2022-10-22T05:09:23;13.40;99.90
9881;DHT22;4979;51.014;6.678;2022-10-22T05:11:51;13.30;99.90
9881;DHT22;4979;51.014;6.678;2022-10-22T05:14:19;13.30;99.90
9881;DHT22;4979;51.014;6.678;2022-10-22T05:16:46;13.30;99.90
9881;DHT22;4979;51.014;6.678;2022-10-22T05:19:20;13.30;99.90
9881;DHT22;4979;51.014;6.678;2022-10-22T05:21:48;13.30;99.90
9881;DHT22;4979;51.014;6.678;2022-10-22T05:24:14;13.20;99.90
9881;DHT22;4979;51.014;6.678;2022-10-22T05:26:39;13.20;99.90
9881;DHT22;4979;51.014;6.678;2022-10-22T05:29:05;13.30;99.90
9881;DHT22;4979;51.014;6.678;2022-10-22T05:31:31;13.20;99.90
9881;DHT22;4979;51.014;6.678;2022-10-22T05:33:56;13.20;99.90
9881;DHT22;4979;51.014;6.678;2022-10-22T05:36:22;13.20;99.90
9881;DHT22;4979;51.014;6.678;2022-10-22T05:38:48;13.20;99.90
9881;DHT22;4979;51.014;6.678;2022-10-22T05:41:19;13.20;99.90
9881;DHT22;4979;51.014;6.678;2022-10-22T05:43:45;13.10;99.90
9881;DHT22;4979;51.014;6.678;2022-10-22T05:46:19;13.10;99.90
9881;DHT22;4979;51.014;6.678;2022-10-22T05:48:54;13.10;99.90
9881;DHT22;4979;51.014;6.678;2022-10-22T05:51:21;13.10;99.90
9881;DHT22;4979;51.014;6.678;2022-10-22T05:53:51;13.10;99.90
9881;DHT22;4979;51.014;6.678;2022-10-22T05:56:16;13.20;99.90
9881;DHT22;4979;51.014;6.678;2022-10-22T05:58:43;13.30;99.90
9881;DHT22;4979;51.014;6.678;2022-10-22T06:01:18;13.30;99.90
9881;DHT22;4979;51.014;6.678;2022-10-22T06:03:44;13.40;99.90
9881;DHT22;4979;51.014;6.678;2022-10-22T06:06:17;13.60;99.90
9881;DHT22;4979;51.014;6.678;2022-10-22T06:08:46;13.60;99.90
9881;DHT22;4979;51.014;6.678;2022-10-22T06:11:12;13.60;99.90
9881;DHT22;4979;51.014;6.678;2022-10-22T06:13:37;13.70;99.90
9881;DHT22;4979;51.014;6.678;2022-10-22T06:16:03;13.80;99.90
9881;DHT22;4979;51.014;6.678;2022-10-22T06:18:29;13.80;99.90
9881;DHT22;4979;51.014;6.678;2022-10-22T06:20:54;13.90;99.90
9881;DHT22;4979;51.014;6.678;2022-10-22T06:23:20;13.90;99.90
9881;DHT22;4979;51.014;6.678;2022-10-22T06:25:55;13.90;99.90
9881;DHT22;4979;51.014;6.678;2022-10-22T06:28:21;13.90;99.90
9881;DHT22;4979;51.014;6.678;2022-10-22T06:30:47;13.90;99.90
9881;DHT22;4979;51.014;6.678;2022-10-22T06:33:12;13.90;99.90
9881;DHT22;4979;51.014;6.678;2022-10-22T06:35:38;14.00;99.90
9881;DHT22;4979;51.014;6.678;2022-10-22T06:38:03;13.90;99.90
9881;DHT22;4979;51.014;6.678;2022-10-22T06:40:31;13.90;99.90
9881;DHT22;4979;51.014;6.678;2022-10-22T06:42:58;14.00;99.90
9881;DHT22;4979;51.014;6.678;2022-10-22T06:45:24;14.00;99.90
9881;DHT22;4979;51.014;6.678;2022-10-22T06:47:50;14.20;99.90
9881;DHT22;4979;51.014;6.678;2022-10-22T06:50:16;14.20;99.90
9881;DHT22;4979;51.014;6.678;2022-10-22T06:52:42;14.20;99.90
9881;DHT22;4979;51.014;6.678;2022-10-22T06:55:08;14.30;99.90
9881;DHT22;4979;51.014;6.678;2022-10-22T06:57:33;14.30;99.90
9881;DHT22;4979;51.014;6.678;2022-10-22T06:59:59;14.40;99.90
9881;DHT22;4979;51.014;6.678;2022-10-22T07:02:24;14.50;99.90
9881;DHT22;4979;51.014;6.678;2022-10-22T07:04:50;14.60;99.90
9881;DHT22;4979;51.014;6.678;2022-10-22T07:07:16;14.60;99.90
9881;DHT22;4979;51.014;6.678;2022-10-22T07:09:41;14.70;99.90
9881;DHT22;4979;51.014;6.678;2022-10-22T07:12:10;14.80;99.90
9881;DHT22;4979;51.014;6.678;2022-10-22T07:14:35;14.80;99.90
9881;DHT22;4979;51.014;6.678;2022-10-22T07:17:01;14.90;99.90
9881;DHT22;4979;51.014;6.678;2022-10-22T07:19:27;15.10;99.90
9881;DHT22;4979;51.014;6.678;2022-10-22T07:21:52;15.20;99.90
9881;DHT22;4979;51.014;6.678;2022-10-22T07:24:18;15.30;99.90
9881;DHT22;4979;51.014;6.678;2022-10-22T07:26:43;15.30;99.90
9881;DHT22;4979;51.014;6.678;2022-10-22T07:29:09;15.30;99.90
9881;DHT22;4979;51.014;6.678;2022-10-22T07:31:34;15.40;99.90
9881;DHT22;4979;51.014;6.678;2022-10-22T07:34:00;15.50;99.90
9881;DHT22;4979;51.014;6.678;2022-10-22T07:36:26;15.60;99.90
9881;DHT22;4979;51.014;6.678;2022-10-22T07:38:56;15.60;99.90
9881;DHT22;4979;51.014;6.678;2022-10-22T07:41:23;15.60;99.90
9881;DHT22;4979;51.014;6.678;2022-10-22T07:43:48;15.60;99.90
9881;DHT22;4979;51.014;6.678;2022-10-22T07:46:14;15.70;99.90
9881;DHT22;4979;51.014;6.678;2022-10-22T07:48:40;15.80;99.90
9881;DHT22;4979;51.014;6.678;2022-10-22T07:51:06;15.90;99.90
9881;DHT22;4979;51.014;6.678;2022-10-22T07:53:32;15.80;99.90
9881;DHT22;4979;51.014;6.678;2022-10-22T07:55:58;15.80;99.90
9881;DHT22;4979;51.014;6.678;2022-10-22T07:58:24;15.70;99.90
9881;DHT22;4979;51.014;6.678;2022-10-22T08:00:50;15.70;99.90
9881;DHT22;4979;51.014;6.678;2022-10-22T08:03:17;15.70;99.90
9881;DHT22;4979;51.014;6.678;2022-10-22T08:05:42;15.70;99.90
9881;DHT22;4979;51.014;6.678;2022-10-22T08:08:09;15.70;99.90
9881;DHT22;4979;51.014;6.678;2022-10-22T08:10:35;15.70;99.90
9881;DHT22;4979;51.014;6.678;2022-10-22T08:13:01;15.70;99.90
9881;DHT22;4979;51.014;6.678;2022-10-22T08:15:27;15.70;99.90
9881;DHT22;4979;51.014;6.678;2022-10-22T08:17:52;15.70;99.90
9881;DHT22;4979;51.014;6.678;2022-10-22T08:20:18;15.60;99.90
9881;DHT22;4979;51.014;6.678;2022-10-22T08:22:44;15.60;99.90
9881;DHT22;4979;51.014;6.678;2022-10-22T08:25:10;15.60;99.90
9881;DHT22;4979;51.014;6.678;2022-10-22T08:27:36;15.60;99.90
9881;DHT22;4979;51.014;6.678;2022-10-22T08:30:03;15.60;99.90
9881;DHT22;4979;51.014;6.678;2022-10-22T08:32:29;15.60;99.90
9881;DHT22;4979;51.014;6.678;2022-10-22T08:34:55;15.70;99.90
9881;DHT22;4979;51.014;6.678;2022-10-22T08:37:21;15.70;99.90
9881;DHT22;4979;51.014;6.678;2022-10-22T08:39:46;15.70;99.90
9881;DHT22;4979;51.014;6.678;2022-10-22T08:45:14;15.80;99.90
9881;DHT22;4979;51.014;6.678;2022-10-22T08:47:48;15.80;99.90
9881;DHT22;4979;51.014;6.678;2022-10-22T08:50:23;15.90;99.90
9881;DHT22;4979;51.014;6.678;2022-10-22T08:52:54;15.90;99.90
9881;DHT22;4979;51.014;6.678;2022-10-22T08:55:23;15.90;99.90
9881;DHT22;4979;51.014;6.678;2022-10-22T08:57:58;15.90;99.90
9881;DHT22;4979;51.014;6.678;2022-10-22T09:00:36;16.00;99.90
9881;DHT22;4979;51.014;6.678;2022-10-22T09:03:17;16.10;99.90
9881;DHT22;4979;51.014;6.678;2022-10-22T09:05:55;16.10;99.90
9881;DHT22;4979;51.014;6.678;2022-10-22T09:08:23;16.00;99.90
9881;DHT22;4979;51.014;6.678;2022-10-22T09:11:19;16.20;99.90
9881;DHT22;4979;51.014;6.678;2022-10-22T09:13:43;16.10;99.90
9881;DHT22;4979;51.014;6.678;2022-10-22T09:16:27;16.20;99.90
9881;DHT22;4979;51.014;6.678;2022-10-22T09:19:17;16.30;99.90
9881;DHT22;4979;51.014;6.678;2022-10-22T09:22:09;16.30;99.90
9881;DHT22;4979;51.014;6.678;2022-10-22T09:24:48;16.30;99.90
9881;DHT22;4979;51.014;6.678;2022-10-22T09:27:19;16.30;99.90
9881;DHT22;4979;51.014;6.678;2022-10-22T09:29:47;16.40;99.90
9881;DHT22;4979;51.014;6.678;2022-10-22T09:32:14;16.40;99.90
9881;DHT22;4979;51.014;6.678;2022-10-22T09:34:39;16.50;99.90
9881;DHT22;4979;51.014;6.678;2022-10-22T09:37:09;16.40;99.90
9881;DHT22;4979;51.014;6.678;2022-10-22T09:39:42;16.50;99.90
9881;DHT22;4979;51.014;6.678;2022-10-22T09:42:10;16.40;99.90
9881;DHT22;4979;51.014;6.678;2022-10-22T09:44:38;16.40;99.90
9881;DHT22;4979;51.014;6.678;2022-10-22T09:47:05;16.40;99.90
9881;DHT22;4979;51.014;6.678;2022-10-22T09:49:34;16.50;99.90
9881;DHT22;4979;51.014;6.678;2022-10-22T09:52:00;16.50;99.90
9881;DHT22;4979;51.014;6.678;2022-10-22T09:57:03;16.50;99.90
9881;DHT22;4979;51.014;6.678;2022-10-22T09:59:36;16.60;99.90
9881;DHT22;4979;51.014;6.678;2022-10-22T10:02:14;16.60;99.90
9881;DHT22;4979;51.014;6.678;2022-10-22T10:04:45;16.60;99.90
9881;DHT22;4979;51.014;6.678;2022-10-22T10:07:17;16.60;99.90
9881;DHT22;4979;51.014;6.678;2022-10-22T10:09:43;16.60;99.90
9881;DHT22;4979;51.014;6.678;2022-10-22T10:17:49;16.60;99.90
9881;DHT22;4979;51.014;6.678;2022-10-22T10:20:48;16.60;99.90
9881;DHT22;4979;51.014;6.678;2022-10-22T10:26:36;16.60;99.90
9881;DHT22;4979;51.014;6.678;2022-10-22T10:29:06;16.60;99.90
9881;DHT22;4979;51.014;6.678;2022-10-22T10:34:39;16.60;99.90
9881;DHT22;4979;51.014;6.678;2022-10-22T10:37:21;16.60;99.90
9881;DHT22;4979;51.014;6.678;2022-10-22T10:42:42;16.60;99.90
9881;DHT22;4979;51.014;6.678;2022-10-22T10:45:16;16.60;99.90
9881;DHT22;4979;51.014;6.678;2022-10-22T10:50:50;16.50;99.90
9881;DHT22;4979;51.014;6.678;2022-10-22T10:53:30;16.60;99.90
9881;DHT22;4979;51.014;6.678;2022-10-22T10:56:29;16.60;99.90
9881;DHT22;4979;51.014;6.678;2022-10-22T10:59:25;16.60;99.90
9881;DHT22;4979;51.014;6.678;2022-10-22T11:07:08;16.60;99.90
9881;DHT22;4979;51.014;6.678;2022-10-22T11:09:39;16.50;99.90
9881;DHT22;4979;51.014;6.678;2022-10-22T11:12:12;16.50;99.90
9881;DHT22;4979;51.014;6.678;2022-10-22T11:17:22;16.40;99.90
9881;DHT22;4979;51.014;6.678;2022-10-22T11:20:11;16.50;99.90
9881;DHT22;4979;51.014;6.678;2022-10-22T11:22:51;16.40;99.90
9881;DHT22;4979;51.014;6.678;2022-10-22T11:25:23;16.30;99.90
9881;DHT22;4979;51.014;6.678;2022-10-22T11:27:55;16.40;99.90
9881;DHT22;4979;51.014;6.678;2022-10-22T11:30:23;16.30;99.90
9881;DHT22;4979;51.014;6.678;2022-10-22T11:32:56;16.30;99.90
9881;DHT22;4979;51.014;6.678;2022-10-22T11:35:25;16.30;99.90
9881;DHT22;4979;51.014;6.678;2022-10-22T11:37:54;16.30;99.90
9881;DHT22;4979;51.014;6.678;2022-10-22T11:40:21;16.30;99.90
9881;DHT22;4979;51.014;6.678;2022-10-22T11:42:51;16.30;99.90
9881;DHT22;4979;51.014;6.678;2022-10-22T11:50:56;16.50;99.90
9881;DHT22;4979;51.014;6.678;2022-10-22T11:56:02;16.60;99.90
9881;DHT22;4979;51.014;6.678;2022-10-22T11:58:31;16.70;99.90
9881;DHT22;4979;51.014;6.678;2022-10-22T12:02:01;16.70;99.90
9881;DHT22;4979;51.014;6.678;2022-10-22T12:06:51;16.80;99.90
9881;DHT22;4979;51.014;6.678;2022-10-22T12:09:18;16.90;99.90
9881;DHT22;4979;51.014;6.678;2022-10-22T12:11:49;16.90;99.90
9881;DHT22;4979;51.014;6.678;2022-10-22T12:16:55;17.00;99.90
9881;DHT22;4979;51.014;6.678;2022-10-22T12:21:50;17.40;99.90
9881;DHT22;4979;51.014;6.678;2022-10-22T12:24:19;17.30;99.90
9881;DHT22;4979;51.014;6.678;2022-10-22T12:26:45;17.30;99.90
9881;DHT22;4979;51.014;6.678;2022-10-22T12:29:14;17.30;99.90
9881;DHT22;4979;51.014;6.678;2022-10-22T12:31:43;17.40;99.90
9881;DHT22;4979;51.014;6.678;2022-10-22T12:34:13;17.40;99.90
9881;DHT22;4979;51.014;6.678;2022-10-22T12:36:39;17.50;99.90
9881;DHT22;4979;51.014;6.678;2022-10-22T12:39:11;17.60;99.90
9881;DHT22;4979;51.014;6.678;2022-10-22T12:41:39;17.70;99.90
9881;DHT22;4979;51.014;6.678;2022-10-22T12:44:05;17.90;99.90
9881;DHT22;4979;51.014;6.678;2022-10-22T12:46:33;18.00;99.90
9881;DHT22;4979;51.014;6.678;2022-10-22T12:49:01;18.00;99.90
9881;DHT22;4979;51.014;6.678;2022-10-22T12:51:27;18.00;99.90
9881;DHT22;4979;51.014;6.678;2022-10-22T12:53:56;18.00;99.90
9881;DHT22;4979;51.014;6.678;2022-10-22T12:56:27;18.10;99.90
9881;DHT22;4979;51.014;6.678;2022-10-22T12:58:58;18.00;99.90
9881;DHT22;4979;51.014;6.678;2022-10-22T13:01:26;18.00;99.90
9881;DHT22;4979;51.014;6.678;2022-10-22T13:06:46;17.70;99.90
9881;DHT22;4979;51.014;6.678;2022-10-22T13:09:21;18.00;99.90
9881;DHT22;4979;51.014;6.678;2022-10-22T13:11:53;18.00;99.90
9881;DHT22;4979;51.014;6.678;2022-10-22T13:14:28;18.00;99.90
9881;DHT22;4979;51.014;6.678;2022-10-22T13:17:13;18.20;99.90
9881;DHT22;4979;51.014;6.678;2022-10-22T13:24:52;18.10;99.90
9881;DHT22;4979;51.014;6.678;2022-10-22T13:27:17;18.30;99.90
9881;DHT22;4979;51.014;6.678;2022-10-22T13:29:43;18.30;99.90
9881;DHT22;4979;51.014;6.678;2022-10-22T13:32:30;18.40;99.90
9881;DHT22;4979;51.014;6.678;2022-10-22T13:34:58;18.60;99.90
9881;DHT22;4979;51.014;6.678;2022-10-22T13:37:24;18.60;99.90
9881;DHT22;4979;51.014;6.678;2022-10-22T13:39:50;18.40;99.90
9881;DHT22;4979;51.014;6.678;2022-10-22T13:42:16;18.40;99.90
9881;DHT22;4979;51.014;6.678;2022-10-22T13:44:41;18.50;99.90
9881;DHT22;4979;51.014;6.678;2022-10-22T13:47:23;18.70;99.90
9881;DHT22;4979;51.014;6.678;2022-10-22T13:49:50;18.80;99.90
9881;DHT22;4979;51.014;6.678;2022-10-22T13:52:25;19.00;99.90
9881;DHT22;4979;51.014;6.678;2022-10-22T13:54:51;18.70;99.90
9881;DHT22;4979;51.014;6.678;2022-10-22T13:57:17;18.50;99.90
9881;DHT22;4979;51.014;6.678;2022-10-22T13:59:42;18.60;99.90
9881;DHT22;4979;51.014;6.678;2022-10-22T14:02:10;18.70;99.90
9881;DHT22;4979;51.014;6.678;2022-10-22T14:04:39;18.70;99.90
9881;DHT22;4979;51.014;6.678;2022-10-22T14:07:13;18.70;99.90
9881;DHT22;4979;51.014;6.678;2022-10-22T14:09:40;18.40;99.90
9881;DHT22;4979;51.014;6.678;2022-10-22T14:12:14;18.50;99.90
9881;DHT22;4979;51.014;6.678;2022-10-22T14:14:39;18.60;99.90
9881;DHT22;4979;51.014;6.678;2022-10-22T14:17:10;18.50;99.90
9881;DHT22;4979;51.014;6.678;2022-10-22T14:19:36;18.30;99.90
9881;DHT22;4979;51.014;6.678;2022-10-22T14:22:02;18.20;99.90
9881;DHT22;4979;51.014;6.678;2022-10-22T14:24:27;18.10;99.90
9881;DHT22;4979;51.014;6.678;2022-10-22T14:26:53;18.10;99.90
9881;DHT22;4979;51.014;6.678;2022-10-22T14:29:18;18.00;99.90
9881;DHT22;4979;51.014;6.678;2022-10-22T14:31:44;18.00;99.90
9881;DHT22;4979;51.014;6.678;2022-10-22T14:34:13;18.00;99.90
9881;DHT22;4979;51.014;6.678;2022-10-22T14:36:40;18.00;99.90
9881;DHT22;4979;51.014;6.678;2022-10-22T14:39:07;18.00;99.90
9881;DHT22;4979;51.014;6.678;2022-10-22T14:41:33;18.00;99.90
9881;DHT22;4979;51.014;6.678;2022-10-22T14:43:59;17.90;99.90
9881;DHT22;4979;51.014;6.678;2022-10-22T14:46:25;17.90;99.90
9881;DHT22;4979;51.014;6.678;2022-10-22T14:48:50;17.80;99.90
9881;DHT22;4979;51.014;6.678;2022-10-22T14:51:18;17.70;99.90
9881;DHT22;4979;51.014;6.678;2022-10-22T14:53:44;17.80;99.90
9881;DHT22;4979;51.014;6.678;2022-10-22T14:56:11;17.80;99.90
9881;DHT22;4979;51.014;6.678;2022-10-22T14:58:38;17.70;99.90
9881;DHT22;4979;51.014;6.678;2022-10-22T15:01:03;17.60;99.90
9881;DHT22;4979;51.014;6.678;2022-10-22T15:03:29;17.70;99.90
9881;DHT22;4979;51.014;6.678;2022-10-22T15:05:55;17.70;99.90
9881;DHT22;4979;51.014;6.678;2022-10-22T15:08:21;17.80;99.90
9881;DHT22;4979;51.014;6.678;2022-10-22T15:11:01;17.80;99.90
9881;DHT22;4979;51.014;6.678;2022-10-22T15:13:27;17.90;99.90
9881;DHT22;4979;51.014;6.678;2022-10-22T15:15:53;18.00;99.90
9881;DHT22;4979;51.014;6.678;2022-10-22T15:18:19;17.90;99.90
9881;DHT22;4979;51.014;6.678;2022-10-22T15:20:52;17.80;99.90
9881;DHT22;4979;51.014;6.678;2022-10-22T15:23:18;17.80;99.90
9881;DHT22;4979;51.014;6.678;2022-10-22T15:25:43;17.70;99.90
9881;DHT22;4979;51.014;6.678;2022-10-22T15:28:09;17.60;99.90
9881;DHT22;4979;51.014;6.678;2022-10-22T15:30:34;17.60;99.90
9881;DHT22;4979;51.014;6.678;2022-10-22T15:33:00;17.50;99.90
9881;DHT22;4979;51.014;6.678;2022-10-22T15:35:26;17.50;99.90
9881;DHT22;4979;51.014;6.678;2022-10-22T15:37:52;17.40;99.90
9881;DHT22;4979;51.014;6.678;2022-10-22T15:40:18;17.30;99.90
9881;DHT22;4979;51.014;6.678;2022-10-22T15:42:44;17.30;99.90
9881;DHT22;4979;51.014;6.678;2022-10-22T15:45:10;17.20;99.90
9881;DHT22;4979;51.014;6.678;2022-10-22T15:47:36;17.30;99.90
9881;DHT22;4979;51.014;6.678;2022-10-22T15:50:02;17.20;99.90
9881;DHT22;4979;51.014;6.678;2022-10-22T15:52:29;17.20;99.90
9881;DHT22;4979;51.014;6.678;2022-10-22T15:54:55;17.20;99.90
9881;DHT22;4979;51.014;6.678;2022-10-22T15:57:20;17.10;99.90
9881;DHT22;4979;51.014;6.678;2022-10-22T15:59:46;17.10;99.90
9881;DHT22;4979;51.014;6.678;2022-10-22T16:02:14;17.00;99.90
9881;DHT22;4979;51.014;6.678;2022-10-22T16:04:40;17.00;99.90
9881;DHT22;4979;51.014;6.678;2022-10-22T16:07:06;16.90;99.90
9881;DHT22;4979;51.014;6.678;2022-10-22T16:09:31;16.80;99.90
9881;DHT22;4979;51.014;6.678;2022-10-22T16:11:57;16.80;99.90
9881;DHT22;4979;51.014;6.678;2022-10-22T16:14:23;16.70;99.90
9881;DHT22;4979;51.014;6.678;2022-10-22T16:16:52;16.60;99.90
9881;DHT22;4979;51.014;6.678;2022-10-22T16:19:19;16.50;99.90
9881;DHT22;4979;51.014;6.678;2022-10-22T16:21:48;15.90;99.90
9881;DHT22;4979;51.014;6.678;2022-10-22T16:24:15;16.40;99.90
9881;DHT22;4979;51.014;6.678;2022-10-22T16:26:40;16.30;99.90
9881;DHT22;4979;51.014;6.678;2022-10-22T16:29:06;16.30;99.90
9881;DHT22;4979;51.014;6.678;2022-10-22T16:31:35;16.20;99.90
9881;DHT22;4979;51.014;6.678;2022-10-22T16:34:00;16.20;99.90
9881;DHT22;4979;51.014;6.678;2022-10-22T16:36:26;16.10;99.90
9881;DHT22;4979;51.014;6.678;2022-10-22T16:38:51;16.10;99.90
9881;DHT22;4979;51.014;6.678;2022-10-22T16:41:19;16.10;99.90
9881;DHT22;4979;51.014;6.678;2022-10-22T16:43:47;16.00;99.90
9881;DHT22;4979;51.014;6.678;2022-10-22T16:46:15;16.00;99.90
9881;DHT22;4979;51.014;6.678;2022-10-22T16:48:48;15.90;99.90
9881;DHT22;4979;51.014;6.678;2022-10-22T16:51:17;16.00;99.90
9881;DHT22;4979;51.014;6.678;2022-10-22T16:53:43;15.00;99.90
9881;DHT22;4979;51.014;6.678;2022-10-22T16:56:10;15.90;99.90
9881;DHT22;4979;51.014;6.678;2022-10-22T16:58:36;15.90;99.90
9881;DHT22;4979;51.014;6.678;2022-10-22T17:01:06;15.90;99.90
9881;DHT22;4979;51.014;6.678;2022-10-22T17:03:32;15.90;99.90
9881;DHT22;4979;51.014;6.678;2022-10-22T17:05:58;16.00;99.90
9881;DHT22;4979;51.014;6.678;2022-10-22T17:08:23;15.80;99.90
9881;DHT22;4979;51.014;6.678;2022-10-22T17:10:49;15.80;99.90
9881;DHT22;4979;51.014;6.678;2022-10-22T17:13:15;15.80;99.90
9881;DHT22;4979;51.014;6.678;2022-10-22T17:15:40;15.80;99.90
9881;DHT22;4979;51.014;6.678;2022-10-22T17:18:06;15.80;99.90
9881;DHT22;4979;51.014;6.678;2022-10-22T17:20:32;15.80;99.90
9881;DHT22;4979;51.014;6.678;2022-10-22T17:22:57;15.80;99.90
9881;DHT22;4979;51.014;6.678;2022-10-22T17:25:31;15.70;99.90
9881;DHT22;4979;51.014;6.678;2022-10-22T17:27:59;15.70;99.90